Time;durP1;ratioP1;P1;durP2;ratioP2;P2;SDS_P1;SDS_P2;PMS_P1;PMS_P2;Temp;Humidity;BMP_temperature;BMP_pressure;BME280_temperature;BME280_humidity;BME280_pressure;Samples;Min_cycle;Max_cycle;Signal;HPM_P1;HPM_P2
2022/10/12 00:01:48;;;;;;;16.02;9.35;;;;;;;5.51;95.63;102465.56;5028841;28;20574;-68
2022/10/12 00:04:13;;;;;;;15.65;8.50;;;;;;;5.47;95.59;102463.16;5030685;28;20029;-70
2022/10/12 00:06:38;;;;;;;17.20;9.65;;;;;;;5.51;96.10;102460.13;5029191;28;20467;-72
2022/10/12 00:09:05;;;;;;;14.00;9.45;;;;;;;5.50;96.21;102455.69;5028957;28;20139;-72
2022/10/12 00:11:30;;;;;;;15.52;9.55;;;;;;;5.46;96.30;102457.84;5027819;28;20049;-69
2022/10/12 00:13:57;;;;;;;14.10;9.32;;;;;;;5.43;96.31;102458.19;5029495;28;20518;-69
2022/10/12 00:16:23;;;;;;;13.07;9.27;;;;;;;5.42;96.31;102464.63;5025627;28;20128;-72
2022/10/12 00:18:51;;;;;;;16.13;9.35;;;;;;;5.41;96.94;102462.91;5022333;28;20072;-67
2022/10/12 00:21:17;;;;;;;14.90;9.30;;;;;;;5.40;97.11;102451.16;5028566;28;20030;-72
2022/10/12 00:23:43;;;;;;;17.23;10.07;;;;;;;5.41;97.21;102462.91;5029225;28;20281;-69
2022/10/12 00:26:15;;;;;;;17.27;9.50;;;;;;;5.42;97.36;102462.78;5029579;28;20071;-70
2022/10/12 00:28:41;;;;;;;15.77;9.27;;;;;;;5.44;97.29;102468.06;5029465;28;20486;-72
2022/10/12 00:31:09;;;;;;;14.60;9.10;;;;;;;5.44;97.46;102470.78;5027063;28;20045;-72
2022/10/12 00:33:36;;;;;;;17.95;9.23;;;;;;;5.44;97.16;102468.06;5029712;28;20022;-72
2022/10/12 00:36:10;;;;;;;16.58;9.02;;;;;;;5.45;96.82;102469.78;5028808;28;20030;-72
2022/10/12 00:38:36;;;;;;;16.50;8.70;;;;;;;5.43;96.29;102463.63;5029097;28;20038;-72
2022/10/12 00:41:01;;;;;;;14.45;9.05;;;;;;;5.40;95.80;102461.22;5027085;28;20018;-72
2022/10/12 00:43:38;;;;;;;13.98;8.30;;;;;;;5.39;95.85;102459.50;5029582;28;20108;-70
2022/10/12 00:46:17;;;;;;;13.63;8.48;;;;;;;5.37;97.08;102465.13;5029045;28;20375;-72
2022/10/12 00:48:46;;;;;;;16.05;8.40;;;;;;;5.34;96.76;102467.31;5029148;28;20040;-68
2022/10/12 00:51:11;;;;;;;;;;;;;;;5.48;96.09;102469.47;5028362;28;20033;-70
2022/10/12 00:53:44;;;;;;;12.25;8.10;;;;;;;5.39;96.21;102464.97;5028606;28;20252;-72
2022/10/12 00:56:13;;;;;;;12.80;7.38;;;;;;;5.37;96.13;102464.25;5028379;28;20124;-71
2022/10/12 00:58:38;;;;;;;12.38;7.72;;;;;;;5.36;96.16;102460.66;5029203;28;20072;-71
2022/10/12 01:01:05;;;;;;;10.95;7.75;;;;;;;5.34;96.42;102462.72;5026732;28;20060;-71
2022/10/12 01:03:31;;;;;;;10.95;7.30;;;;;;;5.37;96.92;102467.84;5031940;28;20083;-68
2022/10/12 01:05:57;;;;;;;12.40;8.32;;;;;;;5.37;96.92;102464.25;5047807;28;20057;-71
2022/10/12 01:08:22;;;;;;;13.30;8.25;;;;;;;5.41;97.34;102466.50;5048438;28;20415;-71
2022/10/12 01:10:48;;;;;;;13.35;8.52;;;;;;;5.43;97.23;102461.78;5033425;28;20033;-67
2022/10/12 01:13:13;;;;;;;13.98;8.02;;;;;;;5.47;97.63;102465.91;5029470;28;20555;-72
2022/10/12 01:15:47;;;;;;;13.23;8.25;;;;;;;5.50;97.70;102459.25;5028196;28;20053;-71
2022/10/12 01:18:20;;;;;;;16.52;8.00;;;;;;;5.50;97.85;102451.09;5028635;28;20040;-72
2022/10/12 01:21:14;;;;;;;14.32;8.25;;;;;;;5.51;98.10;102443.75;5028063;28;20048;-70
2022/10/12 01:23:58;;;;;;;13.73;8.38;;;;;;;5.51;98.32;102441.88;5028659;28;20029;-66
2022/10/12 01:26:46;;;;;;;15.88;8.70;;;;;;;5.44;97.94;102436.22;5028217;28;20072;-72
2022/10/12 01:29:44;;;;;;;16.10;8.60;;;;;;;5.46;98.22;102425.16;5022846;28;20132;-71
2022/10/12 01:32:23;;;;;;;11.98;8.30;;;;;;;5.48;98.27;102425.88;5026504;28;20041;-72
2022/10/12 01:35:08;;;;;;;15.07;9.30;;;;;;;5.51;99.10;102433.72;5027371;28;20029;-68
2022/10/12 01:37:47;;;;;;;17.55;9.45;;;;;;;5.52;99.12;102431.84;5026609;28;20025;-71
2022/10/12 01:40:26;;;;;;;13.85;8.90;;;;;;;5.51;98.87;102420.09;5027836;28;20056;-70
2022/10/12 01:42:53;;;;;;;18.48;9.55;;;;;;;5.46;99.01;102423.28;5028025;28;20113;-71
2022/10/12 01:45:19;;;;;;;15.43;9.40;;;;;;;5.47;99.13;102418.69;5028128;28;20052;-67
2022/10/12 01:47:51;;;;;;;12.75;9.48;;;;;;;5.47;99.30;102414.13;5021469;28;20368;-71
2022/10/12 01:50:20;;;;;;;14.80;8.48;;;;;;;5.50;99.58;102412.09;5027844;28;20562;-67
2022/10/12 01:53:11;;;;;;;14.52;9.15;;;;;;;5.55;99.35;102413.31;5027246;28;20029;-72
2022/10/12 01:55:48;;;;;;;13.50;9.02;;;;;;;5.51;98.51;102414.63;5027958;28;20060;-71
2022/10/12 01:58:41;;;;;;;14.57;8.10;;;;;;;5.56;98.22;102420.47;5026616;28;20029;-71
2022/10/12 02:01:13;;;;;;;14.77;8.48;;;;;;;5.48;98.06;102409.53;5027427;28;20499;-69
2022/10/12 02:03:54;;;;;;;13.68;7.68;;;;;;;5.46;98.37;102414.25;5027335;28;20045;-70
2022/10/12 02:06:27;;;;;;;13.20;8.10;;;;;;;5.42;97.82;102412.84;5026629;28;20038;-72
2022/10/12 02:09:00;;;;;;;13.07;8.35;;;;;;;5.38;98.16;102409.63;5026769;28;20068;-70
2022/10/12 02:11:27;;;;;;;13.25;8.57;;;;;;;5.35;98.29;102409.06;5025345;28;20036;-67
2022/10/12 02:14:17;;;;;;;13.75;10.32;;;;;;;5.40;98.97;102401.28;5027364;28;20052;-71
2022/10/12 02:16:49;;;;;;;14.30;9.60;;;;;;;5.37;99.02;102397.00;5026338;28;20064;-72
2022/10/12 02:19:20;;;;;;;14.52;10.43;;;;;;;5.37;99.11;102398.84;5027105;28;20411;-72
2022/10/12 02:21:48;;;;;;;14.43;10.55;;;;;;;5.35;99.49;102396.31;5026338;28;20029;-69
2022/10/12 02:24:15;;;;;;;17.50;11.27;;;;;;;5.39;99.75;102394.13;5027450;28;20507;-67
2022/10/12 02:26:43;;;;;;;14.83;9.47;;;;;;;5.39;99.54;102388.66;5027444;28;20025;-66
2022/10/12 02:29:20;;;;;;;15.88;10.80;;;;;;;5.41;99.81;102392.09;5025545;28;20730;-70
2022/10/12 02:31:55;;;;;;;14.38;9.57;;;;;;;5.38;99.13;102392.41;5027638;28;20124;-71
2022/10/12 02:34:27;;;;;;;12.80;8.80;;;;;;;5.32;98.65;102393.03;5027208;28;20083;-70
2022/10/12 02:37:08;;;;;;;12.93;8.65;;;;;;;5.29;98.91;102390.63;5006271;28;20048;-72
2022/10/12 02:39:44;;;;;;;14.80;9.10;;;;;;;5.24;98.78;102390.25;5025725;28;20116;-68
2022/10/12 02:42:14;;;;;;;17.10;9.57;;;;;;;5.18;98.59;102392.59;5027070;28;20379;-70
2022/10/12 02:44:41;;;;;;;16.67;9.55;;;;;;;5.15;99.03;102392.91;5026941;28;20036;-70
2022/10/12 02:47:09;;;;;;;16.35;9.82;;;;;;;5.09;98.92;102396.25;5026414;28;20674;-72
2022/10/12 02:49:35;;;;;;;14.55;9.35;;;;;;;5.08;98.88;102390.97;5025590;28;20041;-72
2022/10/12 02:52:03;;;;;;;15.07;9.68;;;;;;;5.07;99.10;102395.56;5025610;28;20044;-72
2022/10/12 02:54:28;;;;;;;14.55;9.73;;;;;;;5.07;99.04;102390.13;5027168;28;20049;-69
2022/10/12 02:56:53;;;;;;;15.05;9.93;;;;;;;5.06;99.12;102380.22;5026865;28;20486;-72
2022/10/12 02:59:19;;;;;;;19.73;10.60;;;;;;;5.03;99.28;102372.38;5025301;28;20049;-71
2022/10/12 03:01:44;;;;;;;16.80;10.05;;;;;;;5.01;98.94;102384.44;5027683;28;20496;-71
2022/10/12 03:04:10;;;;;;;13.95;9.90;;;;;;;4.99;99.16;102381.88;5043351;28;21014;-72
2022/10/12 03:06:35;;;;;;;15.80;10.05;;;;;;;4.98;99.81;102374.72;5044033;28;20044;-69
2022/10/12 03:09:00;;;;;;;16.55;11.15;;;;;;;4.98;100.00;102374.72;5025515;28;20510;-72
2022/10/12 03:11:26;;;;;;;15.02;10.25;;;;;;;4.95;100.00;102373.16;5026384;28;20022;-71
2022/10/12 03:13:52;;;;;;;14.13;10.50;;;;;;;4.93;99.72;102375.19;5026674;28;20050;-69
2022/10/12 03:16:18;;;;;;;17.02;9.98;;;;;;;4.96;99.56;102371.28;5021945;28;20045;-72
2022/10/12 03:18:43;;;;;;;16.10;9.98;;;;;;;4.97;99.37;102373.03;5018489;28;20464;-68
2022/10/12 03:21:09;;;;;;;14.75;10.07;;;;;;;4.95;99.14;102377.75;5025273;28;20084;-69
2022/10/12 03:23:35;;;;;;;13.13;9.15;;;;;;;4.94;99.06;102366.00;5027127;28;20026;-69
2022/10/12 03:26:00;;;;;;;12.48;9.27;;;;;;;4.90;98.54;102370.03;5026717;28;20029;-72
2022/10/12 03:28:25;;;;;;;14.38;8.82;;;;;;;4.89;99.09;102367.50;5025438;28;20112;-69
2022/10/12 03:30:51;;;;;;;15.23;9.50;;;;;;;4.88;98.93;102368.50;5026086;28;20376;-69
2022/10/12 03:33:16;;;;;;;14.23;9.30;;;;;;;4.84;99.00;102372.53;5027207;28;20060;-71
2022/10/12 03:35:45;;;;;;;15.45;10.20;;;;;;;4.78;99.19;102367.72;5026065;28;20112;-71
2022/10/12 03:38:12;;;;;;;12.80;9.43;;;;;;;4.75;99.35;102370.75;5025753;28;20026;-71
2022/10/12 03:40:38;;;;;;;12.25;7.90;;;;;;;4.69;98.83;102364.91;5026482;28;20029;-67
2022/10/12 03:43:03;;;;;;;10.25;8.60;;;;;;;4.65;99.13;102363.50;5026301;28;20087;-70
2022/10/12 03:45:28;;;;;;;13.60;9.25;;;;;;;4.62;99.33;102360.25;5026893;28;20044;-71
2022/10/12 03:47:54;;;;;;;14.52;9.38;;;;;;;4.65;99.59;102360.78;5025023;28;20030;-69
2022/10/12 03:50:19;;;;;;;14.43;9.98;;;;;;;4.64;99.73;102360.94;5023164;28;20029;-69
2022/10/12 03:52:44;;;;;;;13.63;9.75;;;;;;;4.65;99.75;102357.22;5026266;28;20048;-71
2022/10/12 03:55:09;;;;;;;11.35;9.32;;;;;;;4.66;99.77;102362.53;5026167;28;20030;-72
2022/10/12 03:57:35;;;;;;;13.23;9.57;;;;;;;4.61;99.59;102353.97;5027024;28;20038;-70
2022/10/12 04:00:00;;;;;;;14.70;9.65;;;;;;;4.60;99.64;102352.22;5027857;28;20407;-72
2022/10/12 04:02:26;;;;;;;12.18;9.38;;;;;;;4.60;100.00;102354.94;5032435;28;20037;-67
2022/10/12 04:04:51;;;;;;;17.08;10.05;;;;;;;4.58;100.00;102345.25;5049749;28;20029;-70
2022/10/12 04:07:16;;;;;;;14.65;10.00;;;;;;;4.57;100.00;102357.16;5048340;28;20060;-69
2022/10/12 04:09:42;;;;;;;14.00;10.18;;;;;;;4.56;99.93;102352.69;5029707;28;20029;-70
2022/10/12 04:12:07;;;;;;;13.55;9.77;;;;;;;4.52;99.38;102349.44;5029591;28;20025;-71
2022/10/12 04:14:32;;;;;;;11.82;9.57;;;;;;;4.49;99.06;102349.75;5012036;28;20405;-72
2022/10/12 04:16:57;;;;;;;12.88;9.60;;;;;;;4.46;99.21;102350.06;5007136;28;20056;-71
2022/10/12 04:19:23;;;;;;;13.20;9.23;;;;;;;4.46;99.62;102341.91;5010061;28;20061;-70
2022/10/12 04:21:48;;;;;;;14.05;9.05;;;;;;;4.49;99.94;102344.28;5008798;28;20030;-68
2022/10/12 04:24:13;;;;;;;13.30;9.10;;;;;;;4.48;99.50;102353.47;5009112;28;20350;-72
2022/10/12 04:26:38;;;;;;;12.18;8.57;;;;;;;4.49;99.25;102351.59;5008250;28;20038;-67
2022/10/12 04:29:04;;;;;;;11.25;8.52;;;;;;;4.46;98.52;102357.34;5009428;28;20115;-70
2022/10/12 04:31:29;;;;;;;12.32;8.98;;;;;;;4.45;98.36;102353.78;5009846;28;20045;-72
2022/10/12 04:33:55;;;;;;;12.55;8.70;;;;;;;4.41;98.36;102347.81;5009076;28;20029;-72
2022/10/12 04:36:22;;;;;;;12.27;8.77;;;;;;;4.43;98.65;102342.19;5007483;28;20480;-69
2022/10/12 04:38:47;;;;;;;14.00;8.68;;;;;;;4.41;98.62;102344.22;5010034;28;20034;-71
2022/10/12 04:41:13;;;;;;;12.95;9.10;;;;;;;4.41;98.54;102349.66;5009123;28;20040;-71
2022/10/12 04:43:38;;;;;;;12.75;8.80;;;;;;;4.38;98.35;102345.38;5009924;28;20473;-69
2022/10/12 04:46:03;;;;;;;14.23;9.07;;;;;;;4.40;98.66;102353.38;5008757;28;20033;-72
2022/10/12 04:48:28;;;;;;;12.52;8.90;;;;;;;4.40;98.65;102356.94;5003307;28;20026;-72
2022/10/12 04:50:54;;;;;;;14.55;8.85;;;;;;;4.38;98.14;102355.41;4992044;28;20081;-70
2022/10/12 04:53:19;;;;;;;13.52;9.02;;;;;;;4.37;98.04;102365.44;5009124;28;20030;-70
2022/10/12 04:55:45;;;;;;;14.32;9.63;;;;;;;4.38;98.28;102355.41;5009209;28;20042;-70
2022/10/12 04:58:10;;;;;;;14.77;9.60;;;;;;;4.35;98.03;102356.56;5007558;28;20099;-72
2022/10/12 05:00:35;;;;;;;12.20;9.02;;;;;;;4.35;98.00;102355.69;5009130;28;20026;-69
2022/10/12 05:03:00;;;;;;;12.00;9.45;;;;;;;4.35;98.31;102358.41;5007019;28;20181;-69
2022/10/12 05:05:26;;;;;;;13.55;9.60;;;;;;;4.35;99.00;102355.69;5008927;28;20038;-72
2022/10/12 05:07:51;;;;;;;13.73;9.50;;;;;;;4.35;99.00;102351.09;5004466;28;20411;-67
2022/10/12 05:10:17;;;;;;;16.88;9.48;;;;;;;4.33;99.10;102355.00;5008615;28;20033;-70
2022/10/12 05:12:42;;;;;;;16.45;9.55;;;;;;;4.30;99.26;102355.31;5007827;28;20026;-71
2022/10/12 05:15:08;;;;;;;14.05;9.10;;;;;;;4.28;99.42;102354.63;5022758;28;20087;-67
2022/10/12 05:17:34;;;;;;;14.02;9.52;;;;;;;4.25;99.42;102353.03;5027176;28;20082;-70
2022/10/12 05:19:59;;;;;;;16.13;11.02;;;;;;;4.21;99.63;102346.22;5026593;28;20129;-66
2022/10/12 05:22:24;;;;;;;14.68;10.10;;;;;;;4.20;99.71;102346.34;5027522;28;20515;-70
2022/10/12 05:24:49;;;;;;;15.27;10.05;;;;;;;4.18;99.97;102342.94;5028278;28;20083;-70
2022/10/12 05:27:15;;;;;;;14.02;10.32;;;;;;;4.15;99.84;102341.38;5026510;28;20034;-69
2022/10/12 05:29:40;;;;;;;15.65;10.07;;;;;;;4.12;100.00;102337.09;5028200;28;20044;-70
2022/10/12 05:32:05;;;;;;;15.65;10.02;;;;;;;4.11;100.00;102338.13;5027987;28;20037;-72
2022/10/12 05:34:31;;;;;;;12.15;9.35;;;;;;;4.09;100.00;102331.94;5027804;28;20025;-72
2022/10/12 05:36:57;;;;;;;13.77;10.00;;;;;;;4.08;99.96;102329.41;5026595;28;20060;-69
2022/10/12 05:39:22;;;;;;;14.65;10.10;;;;;;;4.06;100.00;102335.00;5026213;28;20034;-72
2022/10/12 05:41:47;;;;;;;12.68;9.50;;;;;;;4.06;100.00;102340.44;5035411;28;20033;-66
2022/10/12 05:44:13;;;;;;;14.43;9.57;;;;;;;4.06;100.00;102334.13;5026234;28;20040;-70
2022/10/12 05:46:38;;;;;;;16.10;9.60;;;;;;;4.04;99.94;102342.44;5026915;28;20037;-71
2022/10/12 05:49:04;;;;;;;12.48;9.25;;;;;;;4.03;100.00;102338.00;5027803;28;20422;-69
2022/10/12 05:51:29;;;;;;;14.60;9.30;;;;;;;4.01;100.00;102333.75;5024153;28;20029;-69
2022/10/12 05:53:54;;;;;;;17.88;11.30;;;;;;;4.01;99.99;102339.19;5027812;28;20597;-71
2022/10/12 05:56:20;;;;;;;16.58;10.00;;;;;;;4.02;100.00;102333.56;5027410;28;20037;-70
2022/10/12 05:58:45;;;;;;;18.17;10.45;;;;;;;4.05;100.00;102327.81;5028272;28;20037;-69
2022/10/12 06:01:12;;;;;;;13.75;9.93;;;;;;;4.06;100.00;102339.56;5024727;28;20103;-70
2022/10/12 06:03:38;;;;;;;14.02;9.90;;;;;;;4.09;99.76;102340.09;5027969;28;20029;-70
2022/10/12 06:06:05;;;;;;;13.68;9.80;;;;;;;4.12;99.71;102333.53;5026452;28;20052;-70
2022/10/12 06:08:31;;;;;;;14.63;9.80;;;;;;;4.14;99.64;102332.34;5027768;28;20152;-70
2022/10/12 06:10:57;;;;;;;15.48;9.30;;;;;;;4.19;99.87;102331.91;5024145;28;20021;-71
2022/10/12 06:13:22;;;;;;;17.75;9.93;;;;;;;4.23;100.00;102333.31;5027185;28;20040;-69
2022/10/12 06:15:48;;;;;;;14.57;9.45;;;;;;;4.25;100.00;102334.00;5026354;28;20065;-70
2022/10/12 06:18:14;;;;;;;12.98;8.88;;;;;;;4.27;100.00;102342.88;5024770;28;20053;-70
2022/10/12 06:20:39;;;;;;;13.63;9.13;;;;;;;4.30;99.96;102337.13;5025910;28;20017;-70
2022/10/12 06:23:05;;;;;;;12.25;9.35;;;;;;;4.34;99.62;102337.69;5024914;28;20030;-71
2022/10/12 06:25:30;;;;;;;13.63;9.52;;;;;;;4.37;99.60;102337.38;5025773;28;20108;-68
2022/10/12 06:27:55;;;;;;;13.60;9.88;;;;;;;4.42;100.00;102337.78;5027154;28;20033;-70
2022/10/12 06:30:21;;;;;;;14.85;9.43;;;;;;;4.47;100.00;102329.16;5024587;28;20112;-72
2022/10/12 06:32:46;;;;;;;13.25;9.30;;;;;;;4.53;100.00;102326.66;5026328;28;20044;-68
2022/10/12 06:35:11;;;;;;;12.35;9.10;;;;;;;4.55;100.00;102326.50;5025658;28;20040;-68
2022/10/12 06:37:36;;;;;;;14.02;9.75;;;;;;;4.62;100.00;102325.75;5026447;28;20030;-73
2022/10/12 06:40:02;;;;;;;14.23;9.82;;;;;;;4.68;100.00;102325.09;5026724;28;20029;-69
2022/10/12 06:42:28;;;;;;;16.45;10.35;;;;;;;4.75;100.00;102329.91;5026938;28;20037;-71
2022/10/12 06:44:53;;;;;;;12.57;10.32;;;;;;;4.83;100.00;102321.84;5026805;28;20040;-73
2022/10/12 06:47:18;;;;;;;17.23;10.75;;;;;;;4.90;100.00;102325.63;5026444;28;20033;-68
2022/10/12 06:49:43;;;;;;;12.95;10.02;;;;;;;4.99;100.00;102332.84;5026188;28;20033;-73
2022/10/12 06:52:09;;;;;;;18.17;10.60;;;;;;;5.09;100.00;102336.34;5023827;28;20476;-71
2022/10/12 06:54:34;;;;;;;18.85;11.50;;;;;;;5.19;100.00;102328.94;5026172;28;20034;-73
2022/10/12 06:56:59;;;;;;;15.55;10.57;;;;;;;5.31;100.00;102328.66;5026373;28;20025;-72
2022/10/12 06:59:24;;;;;;;17.95;10.98;;;;;;;5.37;100.00;102331.63;5024702;28;20025;-69
2022/10/12 07:01:50;;;;;;;19.02;11.68;;;;;;;5.46;100.00;102332.50;5019353;28;20402;-72
2022/10/12 07:04:17;;;;;;;19.20;12.02;;;;;;;5.53;100.00;102330.88;5025918;28;20030;-73
2022/10/12 07:06:42;;;;;;;17.75;11.23;;;;;;;5.60;100.00;102326.47;5021079;28;20029;-71
2022/10/12 07:09:08;;;;;;;16.10;11.25;;;;;;;5.65;100.00;102324.13;5018266;28;20642;-73
2022/10/12 07:11:33;;;;;;;19.90;12.15;;;;;;;5.71;100.00;102331.63;5018078;28;20029;-74
2022/10/12 07:13:58;;;;;;;18.63;11.75;;;;;;;5.79;100.00;102335.44;5034098;28;20080;-71
2022/10/12 07:16:24;;;;;;;19.10;11.60;;;;;;;5.83;100.00;102320.44;5016569;28;20083;-69
2022/10/12 07:18:49;;;;;;;18.90;12.05;;;;;;;5.88;100.00;102323.53;5023602;28;20013;-73
2022/10/12 07:21:15;;;;;;;14.48;11.23;;;;;;;5.93;100.00;102329.38;5020810;28;20025;-71
2022/10/12 07:23:40;;;;;;;17.05;12.63;;;;;;;5.94;100.00;102329.22;5023953;28;20061;-72
2022/10/12 07:26:06;;;;;;;20.98;12.50;;;;;;;6.00;100.00;102326.88;5017196;28;20128;-70
2022/10/12 07:28:33;;;;;;;19.75;12.50;;;;;;;6.08;100.00;102330.47;5014844;28;20087;-73
2022/10/12 07:31:07;;;;;;;22.83;14.07;;;;;;;6.13;100.00;102314.50;5025108;28;20502;-74
2022/10/12 07:33:33;;;;;;;20.38;13.23;;;;;;;6.19;100.00;102321.16;5035991;28;20087;-74
2022/10/12 07:35:59;;;;;;;20.60;14.25;;;;;;;6.22;100.00;102316.19;5023225;28;20077;-67
2022/10/12 07:38:24;;;;;;;22.25;13.65;;;;;;;6.24;100.00;102316.91;5025189;28;20029;-70
2022/10/12 07:40:50;;;;;;;18.92;13.68;;;;;;;6.28;100.00;102313.81;5027694;28;20076;-72
2022/10/12 07:43:15;;;;;;;19.30;13.88;;;;;;;6.31;100.00;102318.97;5026377;28;20131;-74
2022/10/12 07:45:41;;;;;;;22.30;14.85;;;;;;;6.30;100.00;102328.16;5022578;28;20143;-71
2022/10/12 07:48:07;;;;;;;22.05;13.52;;;;;;;6.31;100.00;102329.88;5023643;28;20048;-74
2022/10/12 07:50:32;;;;;;;20.25;15.13;;;;;;;6.35;100.00;102325.78;5024769;28;20029;-68
2022/10/12 07:52:57;;;;;;;21.58;15.35;;;;;;;6.45;100.00;102329.22;5026717;28;20025;-70
2022/10/12 07:55:22;;;;;;;25.65;15.80;;;;;;;6.50;100.00;102330.44;5040472;28;20029;-73
2022/10/12 07:57:48;;;;;;;22.40;16.25;;;;;;;6.63;100.00;102331.81;5025360;28;20032;-73
2022/10/12 08:00:14;;;;;;;21.50;15.73;;;;;;;6.78;100.00;102327.38;5026093;28;20043;-71
2022/10/12 08:02:39;;;;;;;23.08;16.48;;;;;;;6.96;100.00;102328.09;5025162;28;20025;-74
2022/10/12 08:05:05;;;;;;;26.55;17.58;;;;;;;7.15;99.70;102331.50;5024141;28;20025;-69
2022/10/12 08:07:30;;;;;;;22.65;17.55;;;;;;;7.39;99.65;102327.88;5025450;28;20117;-73
2022/10/12 08:09:55;;;;;;;26.63;18.02;;;;;;;7.52;97.86;102330.94;5026093;28;20029;-72
2022/10/12 08:12:21;;;;;;;23.63;17.65;;;;;;;7.49;97.67;102325.81;5023579;28;20024;-69
2022/10/12 08:14:46;;;;;;;24.85;18.00;;;;;;;7.48;97.56;102330.41;5024958;28;20051;-73
2022/10/12 08:17:12;;;;;;;27.23;18.77;;;;;;;7.55;97.90;102330.56;5027237;28;20036;-74
2022/10/12 08:19:37;;;;;;;25.65;18.50;;;;;;;7.67;98.09;102323.72;5026502;28;20060;-68
2022/10/12 08:22:02;;;;;;;26.67;19.33;;;;;;;7.80;97.35;102329.47;5024292;28;20037;-74
2022/10/12 08:24:28;;;;;;;26.08;19.63;;;;;;;7.93;96.88;102326.19;5023838;28;20387;-71
2022/10/12 08:26:53;;;;;;;26.83;19.30;;;;;;;8.07;96.87;102325.44;5022808;28;20041;-71
2022/10/12 08:29:18;;;;;;;29.38;18.48;;;;;;;8.19;95.36;102330.53;5023904;28;20578;-70
2022/10/12 08:31:44;;;;;;;26.40;19.30;;;;;;;8.27;95.88;102325.88;5024643;28;20068;-71
2022/10/12 08:34:09;;;;;;;29.98;21.38;;;;;;;8.48;95.31;102322.53;5028163;28;20108;-74
2022/10/12 08:36:34;;;;;;;27.65;20.10;;;;;;;9.09;95.29;102319.84;5024013;28;20377;-75
2022/10/12 08:39:00;;;;;;;28.17;19.67;;;;;;;9.73;92.11;102309.25;5025838;28;20379;-72
2022/10/12 08:41:41;;;;;;;27.52;19.08;;;;;;;10.07;89.89;102310.53;5031661;28;20017;-74
2022/10/12 08:44:37;;;;;;;28.23;18.80;;;;;;;11.08;87.83;102305.94;5037042;28;20033;-74
2022/10/12 08:47:28;;;;;;;30.13;18.10;;;;;;;11.91;84.92;102301.44;5029788;28;20032;-72
2022/10/12 08:49:54;;;;;;;30.02;18.00;;;;;;;13.03;77.87;102297.28;5027024;28;20037;-69
2022/10/12 08:52:50;;;;;;;24.90;16.90;;;;;;;14.17;76.15;102297.75;5028464;28;20278;-72
2022/10/12 08:55:25;;;;;;;27.80;16.17;;;;;;;15.21;67.85;102295.63;5028843;28;20029;-68
2022/10/12 08:57:50;;;;;;;28.88;16.48;;;;;;;15.63;65.08;102298.63;5012269;28;20075;-72
2022/10/12 09:00:16;;;;;;;25.40;14.52;;;;;;;17.14;60.24;102291.31;5026854;28;20394;-71
2022/10/12 09:02:49;;;;;;;22.92;14.68;;;;;;;18.86;57.16;102296.19;5026150;28;20021;-67
2022/10/12 09:06:01;;;;;;;25.30;14.73;;;;;;;20.20;56.94;102297.97;5026087;28;20029;-71
2022/10/12 09:08:54;;;;;;;21.23;14.50;;;;;;;21.43;50.37;102300.06;5024238;28;20053;-73
2022/10/12 09:11:53;;;;;;;24.20;14.18;;;;;;;21.71;49.10;102305.28;5025711;28;20072;-72
2022/10/12 09:14:23;;;;;;;24.20;15.23;;;;;;;20.42;47.80;102312.72;5020109;28;20091;-69
2022/10/12 09:16:50;;;;;;;23.65;15.23;;;;;;;19.57;49.32;102316.03;5025088;28;20599;-71
2022/10/12 09:19:24;;;;;;;25.00;16.85;;;;;;;19.35;48.72;102327.09;5027216;28;20032;-72
2022/10/12 09:21:49;;;;;;;27.85;16.35;;;;;;;19.67;47.59;102319.00;5025384;28;20021;-70
2022/10/12 09:24:19;;;;;;;25.30;15.45;;;;;;;19.57;46.98;102332.75;5024852;28;20489;-73
2022/10/12 09:26:49;;;;;;;35.10;17.63;;;;;;;18.52;48.51;102331.41;5036234;28;20026;-73
2022/10/12 09:29:25;;;;;;;25.48;17.05;;;;;;;17.21;53.18;102330.91;5026035;28;20044;-73
2022/10/12 09:32:35;;;;;;;24.95;17.08;;;;;;;16.37;57.20;102325.25;5028180;28;20075;-72
2022/10/12 09:35:03;;;;;;;27.10;17.00;;;;;;;15.76;58.80;102328.97;4965160;28;20038;-74
2022/10/12 09:37:30;;;;;;;31.35;18.60;;;;;;;17.05;55.68;102321.34;4968263;28;20062;-74
2022/10/12 09:39:56;;;;;;;24.55;16.80;;;;;;;19.35;51.62;102310.38;4995440;28;20033;-73
2022/10/12 09:42:22;;;;;;;24.00;16.58;;;;;;;20.78;44.76;102304.78;5029872;28;20112;-71
2022/10/12 09:44:51;;;;;;;22.33;16.17;;;;;;;21.91;43.36;102307.38;5020186;28;20164;-72
2022/10/12 09:47:19;;;;;;;25.48;16.52;;;;;;;23.10;42.46;102312.25;5012836;28;20034;-69
2022/10/12 09:49:47;;;;;;;23.33;15.70;;;;;;;23.60;39.38;102302.97;5012952;28;20068;-72
2022/10/12 09:52:14;;;;;;;22.80;16.50;;;;;;;23.89;38.90;102299.56;5025604;28;20025;-71
2022/10/12 09:54:45;;;;;;;24.67;15.88;;;;;;;24.49;38.33;102308.88;5027058;28;20036;-70
2022/10/12 09:57:18;;;;;;;25.45;16.45;;;;;;;25.10;38.26;102300.91;5027126;28;20434;-70
2022/10/12 09:59:44;;;;;;;22.80;15.50;;;;;;;25.63;34.83;102309.41;5028425;28;20484;-70
2022/10/12 10:02:10;;;;;;;23.70;15.27;;;;;;;25.36;34.33;102303.50;5027770;28;20030;-70
2022/10/12 10:04:36;;;;;;;22.92;15.70;;;;;;;24.55;35.63;102304.91;5026229;28;20381;-70
2022/10/12 10:07:38;;;;;;;23.80;16.35;;;;;;;24.51;38.14;102295.38;5022630;28;20495;-70
2022/10/12 10:10:24;;;;;;;25.13;15.95;;;;;;;24.83;38.24;102287.28;5017289;28;20396;-70
2022/10/12 10:12:53;;;;;;;25.83;16.88;;;;;;;24.96;35.63;102277.38;5023515;28;20033;-67
2022/10/12 10:15:26;;;;;;;25.60;16.88;;;;;;;25.23;36.04;102276.88;5024518;28;20045;-71
2022/10/12 10:17:54;;;;;;;21.67;15.80;;;;;;;25.35;35.08;102265.25;5025225;28;20029;-71
2022/10/12 10:20:42;;;;;;;27.45;17.88;;;;;;;25.77;35.78;102275.78;5017959;28;20029;-71
2022/10/12 10:23:27;;;;;;;24.20;16.55;;;;;;;26.00;32.92;102276.06;5019597;28;20064;-70
2022/10/12 10:26:12;;;;;;;24.98;16.17;;;;;;;24.88;36.04;102277.16;5023199;28;20077;-70
2022/10/12 10:28:39;;;;;;;25.92;16.73;;;;;;;23.82;34.86;102280.19;5021889;28;20143;-70
2022/10/12 10:31:15;;;;;;;26.27;17.02;;;;;;;23.92;37.54;102277.38;5023869;28;20072;-72
2022/10/12 10:33:41;;;;;;;27.13;15.90;;;;;;;23.26;36.54;102283.91;5022115;28;20037;-67
2022/10/12 10:36:25;;;;;;;29.15;18.10;;;;;;;22.68;40.20;102283.31;5018163;28;20030;-71
2022/10/12 10:38:59;;;;;;;26.50;17.40;;;;;;;23.10;37.37;102285.06;5024140;28;20071;-69
2022/10/12 10:41:30;;;;;;;24.42;16.67;;;;;;;23.66;36.58;102287.81;5023596;28;20068;-71
2022/10/12 10:43:56;;;;;;;23.60;16.95;;;;;;;24.17;35.62;102270.81;5024902;28;20017;-71
2022/10/12 10:46:29;;;;;;;24.85;15.05;;;;;;;24.95;34.86;102278.50;5024199;28;20506;-73
2022/10/12 10:49:00;;;;;;;24.00;15.80;;;;;;;25.41;33.56;102272.50;5024479;28;20422;-71
2022/10/12 10:51:42;;;;;;;21.45;14.70;;;;;;;25.61;33.77;102272.28;5024010;28;20043;-71
2022/10/12 10:54:22;;;;;;;23.20;15.02;;;;;;;25.61;36.39;102265.81;5022306;28;20035;-68
2022/10/12 10:56:56;;;;;;;21.70;12.98;;;;;;;25.66;32.51;102260.13;5026402;28;20068;-71
2022/10/12 10:59:40;;;;;;;19.20;12.43;;;;;;;26.61;33.08;102264.88;5025093;28;20037;-70
2022/10/12 11:02:18;;;;;;;17.50;12.48;;;;;;;27.24;33.31;102257.91;5023916;28;20033;-70
2022/10/12 11:04:46;;;;;;;;;;;;;;;28.21;31.19;102247.53;5016912;28;20030;-71
2022/10/12 11:07:25;;;;;;;19.42;13.88;;;;;;;26.87;31.54;102256.00;5008242;28;19967;-68
2022/10/12 11:09:55;;;;;;;18.52;14.00;;;;;;;25.94;32.95;102252.78;5027857;28;20142;-70
2022/10/12 11:12:26;;;;;;;22.23;14.75;;;;;;;26.35;31.84;102241.81;5029317;28;20068;-70
2022/10/12 11:14:58;;;;;;;20.85;13.15;;;;;;;26.43;31.91;102237.50;5011188;28;20045;-70
2022/10/12 11:17:28;;;;;;;18.48;12.38;;;;;;;27.07;32.96;102233.13;5011166;28;20030;-70
2022/10/12 11:20:35;;;;;;;19.02;12.45;;;;;;;26.65;32.72;102234.06;5010130;28;20480;-70
2022/10/12 11:23:07;;;;;;;19.08;12.30;;;;;;;26.14;31.64;102229.16;5026766;28;20096;-69
2022/10/12 11:25:47;;;;;;;19.80;11.95;;;;;;;26.33;32.61;102215.09;5011220;28;20108;-69
2022/10/12 11:28:14;;;;;;;18.20;11.55;;;;;;;26.00;31.82;102206.53;5010972;28;20064;-70